Varnadiep — PBIB — position and weather

sailwx.info

Track history (hours):
 
Tides and Currents Weather Stations Pressure Air Temp Water Temp Dewpoint Dewpoint Depression Visibility Wind Speed Wind Dir Waves Ship Positions

Varnadiep

Last reported at 2015-Mar-01 16:34 UTC. Time now 2015-Mar-01 16:43 UTC.
Position N 53°35' E 005°11'.

Length 118 m; draft 7.4 m.

Type: Cargo ship. MMSI: 244729000.

Date/timePositionNaut miles runAvg speedWind from/ knotsBaromVisibWave heightAir tempDewpointWater temp
2015-Mar-01 16:34N 53°35' E 005°11'9 8.6
2015-Mar-01 15:33N 53°38' E 005°25'9 8.7
2015-Mar-01 14:32N 53°41' E 005°39'9 9.4
2015-Mar-01 13:33N 53°44' E 005°54'4711.3
2015-Mar-01 09:24N 53°58' E 007°10'911.2
2015-Mar-01 08:34N 53°60' E 007°26'1110.9
2015-Mar-01 07:33N 54°02' E 007°44'1111.0
2015-Mar-01 06:34N 54°01' E 008°03'1010.1
2015-Mar-01 05:33N 53°60' E 008°20'1110.9
2015-Mar-01 04:33N 53°57' E 008°38'1212.0
2015-Mar-01 03:33N 53°51' E 008°55'8 8.4
2015-Mar-01 02:33N 53°54' E 009°09'2 1.7
2015-Mar-01 01:33N 53°55' E 009°11'7 6.8
2015-Mar-01 00:33N 54°00' E 009°18'9 8.0
2015-Feb-28 23:25N 54°09' E 009°22'3 3.5
2015-Feb-28 22:25N 54°11' E 009°27'6 6.7
2015-Feb-28 21:30N 54°14' E 009°36'7 6.8
2015-Feb-28 20:33N 54°19' E 009°43'7 7.0
2015-Feb-28 19:33N 54°21' E 009°54'7 7.1
2015-Feb-28 18:34N 54°22' E 010°06'1 0.9
2015-Feb-28 17:33N 54°22' E 010°08'1 0.5
2015-Feb-28 16:33N 54°22' E 010°08'1 1.1
2015-Feb-28 15:33N 54°22' E 010°10'7 7.0
2015-Feb-28 14:33N 54°29' E 010°16'1110.7
2015-Feb-28 13:33N 54°34' E 010°32'1310.7
2015-Feb-28 12:23N 54°36' E 010°54'911.4
2015-Feb-28 11:33N 54°36' E 011°10'1312.5
2015-Feb-28 10:33N 54°31' E 011°29'1212.1
2015-Feb-28 09:34N 54°27' E 011°49'1111.4
2015-Feb-28 08:33N 54°28' E 012°08'1212.1
2015-Feb-28 07:33N 54°38' E 012°18'4911.9
2015-Feb-28 03:26N 54°58' E 013°36'1212.2
2015-Feb-28 02:27N 55°03' E 013°56'1112.2
2015-Feb-28 01:33N 55°10' E 014°10'1712.5
2015-Feb-28 00:11N 55°23' E 014°29'38112.0
2015-Feb-26 16:24N 59°37' E 023°18'1011.8
2015-Feb-26 15:33N 59°40' E 023°37'1311.9
2015-Feb-26 14:29N 59°43' E 024°01'6911.6
2015-Feb-26 08:30N 60°06' E 026°11'1112.0
2015-Feb-26 07:34N 60°15' E 026°26'1212.0
2015-Feb-26 06:33N 60°23' E 026°45'1212.0
2015-Feb-26 05:33N 60°21' E 027°09'1010.1
2015-Feb-26 04:33N 60°31' E 027°10'1 0.5
2015-Feb-26 03:34N 60°32' E 027°10'0 0.0
2015-Feb-26 02:31N 60°32' E 027°10'0 0.0
2015-Feb-26 01:31N 60°32' E 027°10'0 0.0
2015-Feb-26 00:31N 60°32' E 027°10'0 0.0
2015-Feb-25 23:31N 60°32' E 027°10'0 0.0
2015-Feb-25 22:31N 60°32' E 027°10'0 0.0
2015-Feb-25 21:31N 60°32' E 027°10'0 0.0
2015-Feb-25 20:31N 60°32' E 027°10'0 0.0
2015-Feb-25 19:31N 60°32' E 027°10'0 0.0
2015-Feb-25 18:31N 60°32' E 027°10'0 0.0
2015-Feb-25 17:31N 60°32' E 027°10'0 0.0
2015-Feb-25 16:31N 60°32' E 027°10'0 0.0
2015-Feb-25 15:33N 60°32' E 027°10'0 0.0
2015-Feb-25 14:33N 60°32' E 027°10'0 0.0
2015-Feb-25 13:33N 60°32' E 027°10'0 0.0
2015-Feb-25 12:33N 60°32' E 027°10'0 0.0
2015-Feb-25 11:27N 60°32' E 027°10'0 0.0
2015-Feb-25 10:25N 60°32' E 027°10'0 0.0
2015-Feb-25 09:31N 60°32' E 027°10'0 0.0
2015-Feb-25 08:31N 60°32' E 027°10'0 0.0
2015-Feb-25 07:31N 60°32' E 027°10'0 0.0
2015-Feb-25 06:31N 60°32' E 027°10'0 0.0
2015-Feb-25 05:31N 60°32' E 027°10'0 0.0
2015-Feb-25 04:31N 60°32' E 027°10'0 0.0
2015-Feb-25 03:25N 60°32' E 027°10'0 0.0
2015-Feb-25 02:31N 60°32' E 027°10'0 0.0
2015-Feb-25 01:33N 60°32' E 027°10'0 0.0
2015-Feb-25 00:32N 60°32' E 027°10'0 0.0
2015-Feb-24 23:32N 60°32' E 027°10'0 0.0
2015-Feb-24 22:32N 60°32' E 027°10'0 0.0
2015-Feb-24 21:29N 60°32' E 027°10'0 0.0
2015-Feb-24 20:32N 60°32' E 027°10'0 0.0
2015-Feb-24 19:29N 60°32' E 027°10'0 0.0
2015-Feb-24 18:32N 60°32' E 027°10'0 0.0
2015-Feb-24 17:29N 60°32' E 027°10'0 0.0
2015-Feb-24 16:32N 60°32' E 027°10'0 0.0
2015-Feb-24 15:32N 60°32' E 027°10'0 0.0
2015-Feb-24 14:29N 60°32' E 027°10'0 0.0
2015-Feb-24 13:32N 60°32' E 027°10'0 0.0
2015-Feb-24 12:32N 60°32' E 027°10'0 0.0
2015-Feb-24 11:32N 60°32' E 027°10'0 0.0
2015-Feb-24 10:26N 60°32' E 027°10'0 0.0
2015-Feb-24 09:29N 60°32' E 027°10'0 0.0
2015-Feb-24 08:29N 60°32' E 027°10'0 0.0
2015-Feb-24 07:32N 60°32' E 027°10'0 0.0
2015-Feb-24 06:29N 60°32' E 027°10'0 0.0
2015-Feb-24 05:29N 60°32' E 027°10'0 0.0
2015-Feb-24 04:32N 60°32' E 027°10'0 0.0
2015-Feb-24 03:26N 60°32' E 027°10'0 0.0
2015-Feb-24 02:23N 60°32' E 027°10'0 0.0
2015-Feb-24 01:26N 60°32' E 027°10'0 0.0
2015-Feb-24 00:29N 60°32' E 027°10'0 0.0
2015-Feb-23 23:29N 60°32' E 027°10'3 3.3
2015-Feb-23 22:33N 60°29' E 027°08'9 9.2
2015-Feb-23 21:33N 60°22' E 026°56'1111.0
2015-Feb-23 20:33N 60°19' E 026°35'1111.1
2015-Feb-23 19:33N 60°10' E 026°21'5011.6
2015-Feb-23 15:15N 59°46' E 024°52'912.5
2015-Feb-23 14:33N 59°45' E 024°35'3012.7
2015-Feb-23 12:14N 59°35' E 023°40'6110.7
2015-Feb-23 06:28N 59°31' E 021°39'1112.2
2015-Feb-23 05:33N 59°34' E 021°18'  
Track history (hours):
 
Tides and Currents Weather Stations Pressure Air Temp Water Temp Dewpoint Dewpoint Depression Visibility Wind Speed Wind Dir Waves Ship Positions

Varnadiep

Last reported at 2015-Mar-01 16:34 UTC. Time now 2015-Mar-01 16:43 UTC.
Position N 53°35' E 005°11'.

Length 118 m; draft 7.4 m.

Type: Cargo ship. MMSI: 244729000.

Date/timePositionNaut miles runAvg speedWind from/ knotsBaromVisibWave heightAir tempDewpointWater temp
2015-Mar-01 16:34N 53°35' E 005°11'9 8.6
2015-Mar-01 15:33N 53°38' E 005°25'9 8.7
2015-Mar-01 14:32N 53°41' E 005°39'9 9.4
2015-Mar-01 13:33N 53°44' E 005°54'4711.3
2015-Mar-01 09:24N 53°58' E 007°10'911.2
2015-Mar-01 08:34N 53°60' E 007°26'1110.9
2015-Mar-01 07:33N 54°02' E 007°44'1111.0
2015-Mar-01 06:34N 54°01' E 008°03'1010.1
2015-Mar-01 05:33N 53°60' E 008°20'1110.9
2015-Mar-01 04:33N 53°57' E 008°38'1212.0
2015-Mar-01 03:33N 53°51' E 008°55'8 8.4
2015-Mar-01 02:33N 53°54' E 009°09'2 1.7
2015-Mar-01 01:33N 53°55' E 009°11'7 6.8
2015-Mar-01 00:33N 54°00' E 009°18'9 8.0
2015-Feb-28 23:25N 54°09' E 009°22'3 3.5
2015-Feb-28 22:25N 54°11' E 009°27'6 6.7
2015-Feb-28 21:30N 54°14' E 009°36'7 6.8
2015-Feb-28 20:33N 54°19' E 009°43'7 7.0
2015-Feb-28 19:33N 54°21' E 009°54'7 7.1
2015-Feb-28 18:34N 54°22' E 010°06'1 0.9
2015-Feb-28 17:33N 54°22' E 010°08'1 0.5
2015-Feb-28 16:33N 54°22' E 010°08'1 1.1
2015-Feb-28 15:33N 54°22' E 010°10'7 7.0
2015-Feb-28 14:33N 54°29' E 010°16'1110.7
2015-Feb-28 13:33N 54°34' E 010°32'1310.7
2015-Feb-28 12:23N 54°36' E 010°54'911.4
2015-Feb-28 11:33N 54°36' E 011°10'1312.5
2015-Feb-28 10:33N 54°31' E 011°29'1212.1
2015-Feb-28 09:34N 54°27' E 011°49'1111.4
2015-Feb-28 08:33N 54°28' E 012°08'1212.1
2015-Feb-28 07:33N 54°38' E 012°18'4911.9
2015-Feb-28 03:26N 54°58' E 013°36'1212.2
2015-Feb-28 02:27N 55°03' E 013°56'1112.2
2015-Feb-28 01:33N 55°10' E 014°10'1712.5
2015-Feb-28 00:11N 55°23' E 014°29'38112.0
2015-Feb-26 16:24N 59°37' E 023°18'1011.8
2015-Feb-26 15:33N 59°40' E 023°37'1311.9
2015-Feb-26 14:29N 59°43' E 024°01'6911.6
2015-Feb-26 08:30N 60°06' E 026°11'1112.0
2015-Feb-26 07:34N 60°15' E 026°26'1212.0
2015-Feb-26 06:33N 60°23' E 026°45'1212.0
2015-Feb-26 05:33N 60°21' E 027°09'1010.1
2015-Feb-26 04:33N 60°31' E 027°10'1 0.5
2015-Feb-26 03:34N 60°32' E 027°10'0 0.0
2015-Feb-26 02:31N 60°32' E 027°10'0 0.0
2015-Feb-26 01:31N 60°32' E 027°10'0 0.0
2015-Feb-26 00:31N 60°32' E 027°10'0 0.0
2015-Feb-25 23:31N 60°32' E 027°10'0 0.0
2015-Feb-25 22:31N 60°32' E 027°10'0 0.0
2015-Feb-25 21:31N 60°32' E 027°10'0 0.0
2015-Feb-25 20:31N 60°32' E 027°10'0 0.0
2015-Feb-25 19:31N 60°32' E 027°10'0 0.0
2015-Feb-25 18:31N 60°32' E 027°10'0 0.0
2015-Feb-25 17:31N 60°32' E 027°10'0 0.0
2015-Feb-25 16:31N 60°32' E 027°10'0 0.0
2015-Feb-25 15:33N 60°32' E 027°10'0 0.0
2015-Feb-25 14:33N 60°32' E 027°10'0 0.0
2015-Feb-25 13:33N 60°32' E 027°10'0 0.0
2015-Feb-25 12:33N 60°32' E 027°10'0 0.0
2015-Feb-25 11:27N 60°32' E 027°10'0 0.0
2015-Feb-25 10:25N 60°32' E 027°10'0 0.0
2015-Feb-25 09:31N 60°32' E 027°10'0 0.0
2015-Feb-25 08:31N 60°32' E 027°10'0 0.0
2015-Feb-25 07:31N 60°32' E 027°10'0 0.0
2015-Feb-25 06:31N 60°32' E 027°10'0 0.0
2015-Feb-25 05:31N 60°32' E 027°10'0 0.0
2015-Feb-25 04:31N 60°32' E 027°10'0 0.0
2015-Feb-25 03:25N 60°32' E 027°10'0 0.0
2015-Feb-25 02:31N 60°32' E 027°10'0 0.0
2015-Feb-25 01:33N 60°32' E 027°10'0 0.0
2015-Feb-25 00:32N 60°32' E 027°10'0 0.0
2015-Feb-24 23:32N 60°32' E 027°10'0 0.0
2015-Feb-24 22:32N 60°32' E 027°10'0 0.0
2015-Feb-24 21:29N 60°32' E 027°10'0 0.0
2015-Feb-24 20:32N 60°32' E 027°10'0 0.0
2015-Feb-24 19:29N 60°32' E 027°10'0 0.0
2015-Feb-24 18:32N 60°32' E 027°10'0 0.0
2015-Feb-24 17:29N 60°32' E 027°10'0 0.0
2015-Feb-24 16:32N 60°32' E 027°10'0 0.0
2015-Feb-24 15:32N 60°32' E 027°10'0 0.0
2015-Feb-24 14:29N 60°32' E 027°10'0 0.0
2015-Feb-24 13:32N 60°32' E 027°10'0 0.0
2015-Feb-24 12:32N 60°32' E 027°10'0 0.0
2015-Feb-24 11:32N 60°32' E 027°10'0 0.0
2015-Feb-24 10:26N 60°32' E 027°10'0 0.0
2015-Feb-24 09:29N 60°32' E 027°10'0 0.0
2015-Feb-24 08:29N 60°32' E 027°10'0 0.0
2015-Feb-24 07:32N 60°32' E 027°10'0 0.0
2015-Feb-24 06:29N 60°32' E 027°10'0 0.0
2015-Feb-24 05:29N 60°32' E 027°10'0 0.0
2015-Feb-24 04:32N 60°32' E 027°10'0 0.0
2015-Feb-24 03:26N 60°32' E 027°10'0 0.0
2015-Feb-24 02:23N 60°32' E 027°10'0 0.0
2015-Feb-24 01:26N 60°32' E 027°10'0 0.0
2015-Feb-24 00:29N 60°32' E 027°10'0 0.0
2015-Feb-23 23:29N 60°32' E 027°10'3 3.3
2015-Feb-23 22:33N 60°29' E 027°08'9 9.2
2015-Feb-23 21:33N 60°22' E 026°56'1111.0
2015-Feb-23 20:33N 60°19' E 026°35'1111.1
2015-Feb-23 19:33N 60°10' E 026°21'5011.6
2015-Feb-23 15:15N 59°46' E 024°52'912.5
2015-Feb-23 14:33N 59°45' E 024°35'3012.7
2015-Feb-23 12:14N 59°35' E 023°40'6110.7
2015-Feb-23 06:28N 59°31' E 021°39'1112.2
2015-Feb-23 05:33N 59°34' E 021°18'  

Dump ship's entire track history